createdAt,value
2023-03-04T00:01:02.983Z,67.25
2023-03-04T00:02:35.722Z,64.30
2023-03-04T00:04:08.479Z,66.28
2023-03-04T00:05:40.305Z,63.10
2023-03-04T00:07:16.643Z,64.43
2023-03-04T00:08:49.322Z,68.32
2023-03-04T00:10:23.320Z,61.75
2023-03-04T00:11:56.027Z,66.18
2023-03-04T00:13:28.771Z,68.55
2023-03-04T00:15:01.434Z,64.22
2023-03-04T00:16:33.248Z,72.72
2023-03-04T00:18:06.199Z,72.63
2023-03-04T00:19:39.105Z,68.47
2023-03-04T00:21:11.822Z,68.57
2023-03-04T00:22:43.559Z,70.65
2023-03-04T00:24:16.254Z,70.43
2023-03-04T00:25:49.402Z,71.05
2023-03-04T00:27:22.084Z,72.97
2023-03-04T00:28:53.965Z,69.80
2023-03-04T00:30:26.669Z,66.78
2023-03-04T00:31:59.526Z,69.00
2023-03-04T00:33:32.314Z,70.90
2023-03-04T00:35:05.719Z,70.57
2023-03-04T00:36:38.436Z,76.95
2023-03-04T00:38:11.128Z,82.13
2023-03-04T00:39:43.858Z,70.65
2023-03-04T00:41:18.112Z,72.63
2023-03-04T00:42:50.887Z,75.90
2023-03-04T00:44:23.581Z,78.63
2023-03-04T00:45:56.337Z,83.22
2023-03-04T00:47:29.043Z,70.97
2023-03-04T00:49:00.820Z,73.95
2023-03-04T00:50:33.775Z,72.07
2023-03-04T00:52:05.649Z,73.40
2023-03-04T00:53:38.352Z,71.15
2023-03-04T00:55:11.223Z,72.57
2023-03-04T00:56:45.266Z,70.07
2023-03-04T00:58:18.115Z,72.57
2023-03-04T00:59:51.049Z,75.68
2023-03-04T01:01:24.110Z,75.13
2023-03-04T01:02:55.912Z,70.32
2023-03-04T01:04:28.641Z,75.40
2023-03-04T01:06:01.957Z,75.90
2023-03-04T01:07:34.673Z,74.40
2023-03-04T01:09:08.400Z,74.13
2023-03-04T01:10:41.151Z,81.88
2023-03-04T01:12:15.179Z,76.72
2023-03-04T01:13:48.450Z,75.30
2023-03-04T01:15:20.329Z,72.65
2023-03-04T01:16:53.252Z,73.35
2023-03-04T01:18:26.111Z,66.43
2023-03-04T01:19:57.852Z,74.97
2023-03-04T01:21:30.585Z,70.68
2023-03-04T01:23:03.332Z,66.00
2023-03-04T01:24:36.564Z,66.97
2023-03-04T01:26:09.320Z,68.82
2023-03-04T01:27:43.364Z,68.60
2023-03-04T01:29:16.093Z,67.68
2023-03-04T01:30:48.830Z,65.97
2023-03-04T01:32:21.779Z,70.65
2023-03-04T01:33:54.502Z,70.85
2023-03-04T01:35:27.294Z,75.60
2023-03-04T01:36:59.972Z,73.47
2023-03-04T01:38:32.674Z,77.97
2023-03-04T01:40:05.781Z,74.00
2023-03-04T01:41:38.548Z,80.00
2023-03-04T01:43:20.172Z,79.80
2023-03-04T01:44:53.361Z,78.97
2023-03-04T01:46:26.236Z,78.13
2023-03-04T01:47:59.147Z,73.65
2023-03-04T01:49:31.877Z,77.70
2023-03-04T01:51:05.255Z,82.03
2023-03-04T01:52:40.022Z,82.32
2023-03-04T01:54:12.754Z,76.20
2023-03-04T01:55:45.479Z,81.20
2023-03-04T01:57:20.483Z,73.05
2023-03-04T01:59:12.803Z,77.22
2023-03-04T02:00:45.960Z,81.75
2023-03-04T02:02:17.832Z,72.50
2023-03-04T02:03:50.552Z,74.93
2023-03-04T02:05:23.043Z,73.05
2023-03-04T02:06:57.068Z,76.93
2023-03-04T02:08:30.042Z,77.82
2023-03-04T02:10:02.897Z,72.78
2023-03-04T02:11:35.624Z,79.10
2023-03-04T02:13:08.426Z,77.70
2023-03-04T02:14:42.547Z,76.75
2023-03-04T02:16:15.336Z,69.38
2023-03-04T02:17:48.211Z,75.05
2023-03-04T02:19:32.326Z,73.85
2023-03-04T02:21:12.740Z,70.55
2023-03-04T02:22:51.366Z,72.15
2023-03-04T02:24:30.105Z,79.47
2023-03-04T02:26:14.258Z,72.78
2023-03-04T02:27:46.981Z,76.38
2023-03-04T02:29:19.810Z,76.15
2023-03-04T02:30:52.842Z,70.18
2023-03-04T02:32:25.794Z,81.63
2023-03-04T02:34:00.574Z,69.78
2023-03-04T02:35:32.570Z,77.85
2023-03-04T02:37:05.594Z,66.07
2023-03-04T02:38:37.383Z,73.90
2023-03-04T02:40:16.177Z,76.70
2023-03-04T02:41:51.746Z,67.15
2023-03-04T02:43:23.524Z,80.07
2023-03-04T02:45:01.171Z,74.13
2023-03-04T02:46:33.891Z,82.10
2023-03-04T02:48:06.645Z,87.05
2023-03-04T02:49:41.329Z,82.22
2023-03-04T02:51:13.073Z,80.50
2023-03-04T02:52:45.834Z,77.30
2023-03-04T02:54:20.576Z,86.88
2023-03-04T02:55:52.354Z,80.20
2023-03-04T02:57:26.366Z,76.47
2023-03-04T02:58:59.045Z,75.38
2023-03-04T03:00:31.055Z,74.57
2023-03-04T03:02:03.896Z,73.22
2023-03-04T03:03:35.820Z,78.72
2023-03-04T03:05:09.122Z,72.95
2023-03-04T03:06:41.870Z,71.60
2023-03-04T03:08:13.889Z,80.25
2023-03-04T03:09:46.578Z,74.45
2023-03-04T03:11:19.263Z,77.93
2023-03-04T03:12:53.696Z,82.07
2023-03-04T03:14:26.426Z,79.57
2023-03-04T03:15:59.162Z,81.82
2023-03-04T03:17:30.918Z,81.03
2023-03-04T03:19:03.827Z,76.65
2023-03-04T03:20:36.534Z,77.07
2023-03-04T03:22:08.353Z,88.72
2023-03-04T03:23:41.225Z,86.63
2023-03-04T03:25:14.627Z,79.15
2023-03-04T03:26:47.310Z,83.45
2023-03-04T03:28:21.426Z,84.68
2023-03-04T03:29:54.115Z,82.40
2023-03-04T03:31:26.911Z,81.50
2023-03-04T03:32:59.719Z,75.97
2023-03-04T03:34:32.403Z,84.20
2023-03-04T03:36:06.013Z,83.43
2023-03-04T03:37:38.159Z,79.57
2023-03-04T03:39:11.149Z,81.18
2023-03-04T03:40:43.967Z,78.25
2023-03-04T03:42:16.813Z,78.82
2023-03-04T03:43:50.877Z,80.75
2023-03-04T03:45:22.660Z,81.28
2023-03-04T03:46:55.439Z,81.93
2023-03-04T03:48:27.267Z,79.43
2023-03-04T03:50:00.043Z,82.53
2023-03-04T03:51:31.883Z,82.45
2023-03-04T03:53:04.723Z,87.70
2023-03-04T03:54:37.452Z,85.05
2023-03-04T03:56:10.169Z,86.53
2023-03-04T03:57:42.890Z,78.47
2023-03-04T03:59:15.981Z,80.50
2023-03-04T04:00:48.725Z,84.40
2023-03-04T04:02:22.090Z,81.05
2023-03-04T04:03:54.953Z,75.80
2023-03-04T04:05:26.780Z,82.43
2023-03-04T04:06:59.473Z,76.85
2023-03-04T04:08:31.252Z,82.05
2023-03-04T04:10:05.175Z,82.40
2023-03-04T04:11:37.933Z,78.60
2023-03-04T04:13:11.109Z,87.13
2023-03-04T04:14:45.182Z,82.55
2023-03-04T04:16:17.954Z,74.93
2023-03-04T04:17:50.681Z,83.05
2023-03-04T04:19:23.388Z,77.93
2023-03-04T04:20:56.448Z,77.90
2023-03-04T04:22:29.171Z,80.30
2023-03-04T04:24:01.929Z,76.93
2023-03-04T04:25:34.675Z,79.40
2023-03-04T04:27:07.478Z,73.60
2023-03-04T04:28:39.208Z,78.95
2023-03-04T04:30:14.112Z,76.88
2023-03-04T04:31:46.819Z,73.45
2023-03-04T04:33:19.595Z,78.10
2023-03-04T04:34:52.273Z,76.30
2023-03-04T04:36:24.957Z,80.97
2023-03-04T04:37:57.717Z,72.40
2023-03-04T04:39:30.403Z,74.97
2023-03-04T04:41:18.288Z,77.57
2023-03-04T04:42:51.226Z,77.85
2023-03-04T04:44:23.001Z,74.72
2023-03-04T04:45:57.087Z,82.43
2023-03-04T04:47:28.868Z,76.25
2023-03-04T04:49:01.669Z,75.85
2023-03-04T04:50:33.433Z,80.47
2023-03-04T04:52:06.215Z,80.22
2023-03-04T04:53:38.427Z,85.40
2023-03-04T04:55:11.915Z,82.78
2023-03-04T04:56:44.825Z,78.38
2023-03-04T04:58:17.496Z,78.50
2023-03-04T04:59:50.236Z,79.65
2023-03-04T05:01:24.400Z,79.47
2023-03-04T05:02:56.202Z,85.78
2023-03-04T05:04:29.103Z,72.68
2023-03-04T05:06:00.923Z,78.30
2023-03-04T05:07:33.687Z,73.95
2023-03-04T05:09:07.095Z,77.65
2023-03-04T05:10:39.805Z,75.68
2023-03-04T05:12:12.872Z,76.28
2023-03-04T05:13:45.634Z,80.10
2023-03-04T05:15:18.675Z,71.07
2023-03-04T05:16:53.071Z,80.57
2023-03-04T05:18:26.182Z,75.57
2023-03-04T05:19:58.896Z,78.72
2023-03-04T05:21:31.618Z,81.03
2023-03-04T05:23:04.629Z,77.05
2023-03-04T05:24:37.338Z,78.97
2023-03-04T05:26:12.350Z,78.70
2023-03-04T05:27:45.066Z,74.30
2023-03-04T05:29:17.777Z,73.95
2023-03-04T05:30:49.719Z,73.15
2023-03-04T05:32:23.918Z,72.10
2023-03-04T05:33:56.651Z,72.63
2023-03-04T05:35:29.125Z,70.05
2023-03-04T05:37:01.924Z,69.85
2023-03-04T05:38:34.021Z,72.50
2023-03-04T05:40:08.342Z,77.18
2023-03-04T05:41:41.031Z,77.72
2023-03-04T05:43:13.203Z,74.30
2023-03-04T05:44:45.948Z,68.97
2023-03-04T05:46:24.065Z,74.82
2023-03-04T05:47:58.403Z,69.07
2023-03-04T05:49:31.109Z,71.40
2023-03-04T05:51:03.983Z,75.97
2023-03-04T05:52:36.793Z,73.85
2023-03-04T05:54:09.554Z,75.15
2023-03-04T05:55:47.084Z,72.72
2023-03-04T05:57:18.904Z,65.35
2023-03-04T05:58:51.594Z,70.90
2023-03-04T06:00:24.653Z,65.28
2023-03-04T06:01:57.470Z,64.22
2023-03-04T06:03:31.578Z,70.32
2023-03-04T06:05:04.554Z,65.25
2023-03-04T06:06:37.256Z,67.38
2023-03-04T06:08:10.129Z,63.38
2023-03-04T06:09:45.017Z,71.70
2023-03-04T06:11:17.724Z,69.07
2023-03-04T06:12:50.434Z,66.57
2023-03-04T06:14:23.150Z,67.50
2023-03-04T06:15:57.168Z,69.38
2023-03-04T06:17:29.970Z,68.95
2023-03-04T06:19:04.027Z,61.40
2023-03-04T06:20:37.087Z,64.55
2023-03-04T06:22:10.750Z,60.10
2023-03-04T06:23:45.081Z,61.92
2023-03-04T06:25:17.906Z,64.90
2023-03-04T06:26:50.592Z,63.25
2023-03-04T06:28:23.732Z,64.32
2023-03-04T06:29:56.368Z,62.85
2023-03-04T06:31:29.166Z,66.90
2023-03-04T06:33:01.892Z,65.22
2023-03-04T06:34:36.215Z,60.92
2023-03-04T06:36:09.221Z,69.82
2023-03-04T06:37:42.003Z,65.03
2023-03-04T06:39:14.781Z,65.70
2023-03-04T06:40:47.501Z,66.50
2023-03-04T06:42:20.358Z,63.55
2023-03-04T06:43:54.877Z,64.10
2023-03-04T06:45:27.709Z,66.18
2023-03-04T06:47:00.537Z,60.40
2023-03-04T06:48:33.277Z,59.40
2023-03-04T06:50:08.060Z,56.53
2023-03-04T06:51:40.778Z,55.50
2023-03-04T06:53:13.531Z,75.82
2023-03-04T06:54:46.261Z,69.32
2023-03-04T06:56:18.082Z,61.50
2023-03-04T06:57:50.957Z,53.67
2023-03-04T06:59:23.713Z,59.05
2023-03-04T07:00:56.430Z,52.90
2023-03-04T07:02:28.180Z,53.85
2023-03-04T07:04:01.092Z,54.33
2023-03-04T07:05:35.141Z,53.50
2023-03-04T07:07:07.860Z,58.90
2023-03-04T07:08:40.812Z,49.28
2023-03-04T07:10:13.492Z,55.45
2023-03-04T07:11:46.449Z,51.20
2023-03-04T07:13:19.154Z,53.75
2023-03-04T07:14:51.838Z,55.42
2023-03-04T07:16:25.152Z,50.45
2023-03-04T07:17:57.904Z,57.45
2023-03-04T07:19:30.670Z,60.47
2023-03-04T07:21:05.185Z,54.72
2023-03-04T07:22:37.984Z,54.63
2023-03-04T07:24:10.694Z,54.85
2023-03-04T07:25:43.428Z,87.00
2023-03-04T07:27:16.103Z,65.68
2023-03-04T07:28:49.707Z,58.20
2023-03-04T07:30:22.628Z,63.30
2023-03-04T07:31:55.491Z,59.22
2023-03-04T07:33:28.255Z,53.97
2023-03-04T07:35:01.008Z,50.30
2023-03-04T07:36:37.288Z,56.92
2023-03-04T07:38:09.999Z,55.33
2023-03-04T07:39:42.765Z,55.95
2023-03-04T07:41:15.579Z,56.08
2023-03-04T07:42:50.961Z,54.80
2023-03-04T07:44:23.832Z,53.22
2023-03-04T07:46:01.501Z,54.00
2023-03-04T07:47:34.309Z,57.85
2023-03-04T07:49:07.038Z,56.00
2023-03-04T07:50:39.726Z,55.83
2023-03-04T07:52:14.434Z,59.40
2023-03-04T07:53:48.796Z,58.83
2023-03-04T07:55:21.519Z,59.03
2023-03-04T07:56:54.380Z,55.90
2023-03-04T07:58:26.236Z,55.60
2023-03-04T07:59:58.956Z,65.80
2023-03-04T08:01:33.841Z,59.90
2023-03-04T08:03:06.562Z,57.05
2023-03-04T08:04:39.431Z,59.80
2023-03-04T08:06:12.840Z,53.33
2023-03-04T08:07:46.870Z,54.58
2023-03-04T08:09:19.583Z,52.88
2023-03-04T08:10:52.281Z,48.15
2023-03-04T08:12:25.682Z,51.28
2023-03-04T08:13:58.805Z,53.50
2023-03-04T08:15:32.832Z,48.40
2023-03-04T08:17:05.587Z,50.38
2023-03-04T08:18:39.604Z,48.90
2023-03-04T08:20:13.685Z,58.60
2023-03-04T08:21:46.457Z,58.90
2023-03-04T08:23:19.826Z,50.13
2023-03-04T08:24:52.583Z,52.25
2023-03-04T08:26:27.981Z,52.30
2023-03-04T08:28:00.723Z,55.95
2023-03-04T08:29:33.524Z,61.42
2023-03-04T08:31:06.533Z,57.78
2023-03-04T08:32:39.423Z,70.55
2023-03-04T08:34:12.956Z,86.10
2023-03-04T08:35:45.766Z,72.28
2023-03-04T08:37:18.508Z,55.35
2023-03-04T08:38:52.539Z,46.28
2023-03-04T08:40:27.027Z,46.85
2023-03-04T08:41:59.752Z,54.35
2023-03-04T08:43:33.152Z,45.03
2023-03-04T08:45:06.749Z,52.10
2023-03-04T08:46:40.765Z,47.58
2023-03-04T08:48:13.485Z,45.30
2023-03-04T08:49:46.206Z,50.03
2023-03-04T08:51:19.199Z,43.00
2023-03-04T08:52:51.880Z,44.92
2023-03-04T08:54:25.919Z,39.13
2023-03-04T08:55:58.668Z,39.30
2023-03-04T08:57:31.425Z,35.38
2023-03-04T08:59:04.170Z,31.30
2023-03-04T09:00:40.290Z,31.98
2023-03-04T09:02:12.974Z,41.00
2023-03-04T09:03:45.789Z,33.38
2023-03-04T09:05:18.596Z,37.70
2023-03-04T09:06:53.629Z,32.67
2023-03-04T09:08:26.688Z,31.02
2023-03-04T09:10:00.690Z,36.35
2023-03-04T09:11:33.427Z,35.25
2023-03-04T09:13:06.263Z,32.08
2023-03-04T09:14:38.969Z,35.70
2023-03-04T09:16:14.115Z,31.33
2023-03-04T09:17:47.113Z,38.25
2023-03-04T09:19:19.822Z,32.63
2023-03-04T09:20:53.267Z,33.42
2023-03-04T09:22:26.198Z,27.83
2023-03-04T09:23:58.893Z,28.75
2023-03-04T09:25:33.672Z,33.97
2023-03-04T09:27:06.357Z,27.13
2023-03-04T09:28:39.097Z,34.80
2023-03-04T09:30:12.847Z,34.53
2023-03-04T09:31:45.574Z,35.75
2023-03-04T09:33:18.827Z,37.22
2023-03-04T09:34:51.514Z,32.78
2023-03-04T09:36:24.778Z,30.67
2023-03-04T09:37:57.811Z,32.58
2023-03-04T09:39:30.539Z,29.85
2023-03-04T09:41:08.561Z,32.13
2023-03-04T09:42:47.475Z,31.55
2023-03-04T09:44:25.025Z,31.30
2023-03-04T09:46:00.647Z,34.42
2023-03-04T09:47:36.555Z,34.17
2023-03-04T09:49:12.710Z,31.42
2023-03-04T09:50:53.173Z,25.95
2023-03-04T09:52:38.541Z,29.80
2023-03-04T09:54:16.222Z,24.25
2023-03-04T09:55:53.163Z,26.35
2023-03-04T09:57:31.772Z,23.73
2023-03-04T09:59:13.403Z,30.08
2023-03-04T10:00:51.308Z,21.77
2023-03-04T10:02:30.282Z,27.02
2023-03-04T10:04:14.033Z,26.05
2023-03-04T10:05:57.535Z,27.73
2023-03-04T10:07:37.214Z,27.65
2023-03-04T10:09:15.039Z,27.55
2023-03-04T10:10:49.477Z,27.58
2023-03-04T10:12:25.699Z,26.10
2023-03-04T10:14:09.707Z,29.05
2023-03-04T10:15:46.402Z,24.77
2023-03-04T10:17:23.864Z,28.60
2023-03-04T10:18:59.844Z,21.15
2023-03-04T10:20:47.903Z,25.42
2023-03-04T10:22:26.693Z,21.85
2023-03-04T10:24:01.010Z,21.42
2023-03-04T10:25:34.348Z,23.55
2023-03-04T10:27:14.475Z,27.45
2023-03-04T10:28:47.459Z,23.60
2023-03-04T10:30:31.533Z,26.08
2023-03-04T10:32:04.446Z,25.75
2023-03-04T10:33:38.852Z,25.92
2023-03-04T10:35:13.814Z,27.65
2023-03-04T10:36:56.459Z,21.65
2023-03-04T10:38:32.886Z,21.70
2023-03-04T10:40:18.665Z,27.45
2023-03-04T10:42:01.061Z,28.48
2023-03-04T10:43:33.818Z,27.67
2023-03-04T10:45:23.670Z,22.25
2023-03-04T10:46:57.971Z,21.05
2023-03-04T10:48:32.850Z,20.23
2023-03-04T10:50:06.955Z,19.48
2023-03-04T10:51:44.521Z,25.45
2023-03-04T10:53:29.343Z,18.98
2023-03-04T10:55:05.260Z,23.10
2023-03-04T10:56:40.957Z,22.17
2023-03-04T10:58:18.145Z,17.83
2023-03-04T10:59:56.839Z,19.77
2023-03-04T11:01:30.898Z,21.38
2023-03-04T11:03:36.346Z,16.20
2023-03-04T11:05:19.640Z,21.42
2023-03-04T11:06:52.990Z,19.90
2023-03-04T11:08:25.684Z,15.82
2023-03-04T11:10:10.068Z,19.33
2023-03-04T11:11:45.879Z,19.48
2023-03-04T11:13:20.750Z,23.40
2023-03-04T11:14:53.666Z,18.13
2023-03-04T11:16:30.959Z,17.15
2023-03-04T11:18:06.883Z,18.42
2023-03-04T11:19:40.969Z,18.70
2023-03-04T11:21:19.179Z,20.50
2023-03-04T11:22:53.172Z,19.63
2023-03-04T11:24:29.674Z,20.73
2023-03-04T11:26:05.492Z,20.30
2023-03-04T11:27:43.959Z,21.17
2023-03-04T11:29:20.188Z,21.05
2023-03-04T11:30:56.647Z,21.10
2023-03-04T11:32:34.970Z,22.65
2023-03-04T11:34:16.201Z,21.75
2023-03-04T11:35:58.130Z,23.60
2023-03-04T11:37:36.299Z,26.20
2023-03-04T11:39:18.281Z,26.25
2023-03-04T11:40:55.177Z,24.40
2023-03-04T11:42:35.772Z,25.60
2023-03-04T11:44:09.813Z,25.08
2023-03-04T11:46:21.482Z,27.77
2023-03-04T11:48:05.602Z,26.55
2023-03-04T11:50:19.944Z,25.50
2023-03-04T11:52:00.616Z,24.35
2023-03-04T11:53:44.940Z,23.13
2023-03-04T11:55:30.379Z,25.70
2023-03-04T11:57:13.060Z,20.42
2023-03-04T11:59:02.122Z,22.05
2023-03-04T12:00:44.548Z,20.98
2023-03-04T12:02:20.372Z,18.75
2023-03-04T12:04:22.952Z,20.95
2023-03-04T12:06:03.676Z,20.60
2023-03-04T12:07:51.202Z,16.83
2023-03-04T12:09:38.589Z,24.23
2023-03-04T12:11:18.247Z,19.48
2023-03-04T12:13:28.227Z,20.27
2023-03-04T12:15:14.283Z,17.83
2023-03-04T12:17:19.201Z,20.55
2023-03-04T12:19:13.684Z,17.08
2023-03-04T12:20:59.100Z,18.30
2023-03-04T12:22:40.379Z,17.98
2023-03-04T12:24:37.800Z,20.23
2023-03-04T12:26:25.469Z,18.33
2023-03-04T12:28:12.421Z,18.33
2023-03-04T12:29:54.933Z,18.83
2023-03-04T12:31:39.990Z,16.00
2023-03-04T12:33:25.269Z,15.55
2023-03-04T12:35:17.398Z,18.20
2023-03-04T12:37:00.304Z,18.88
2023-03-04T12:38:43.258Z,19.70
2023-03-04T12:40:33.453Z,21.67
2023-03-04T12:42:19.531Z,17.38
2023-03-04T12:43:59.336Z,20.63
2023-03-04T12:45:41.608Z,16.40
2023-03-04T12:47:26.096Z,18.65
2023-03-04T12:49:26.961Z,18.00
2023-03-04T12:51:09.417Z,17.35
2023-03-04T12:52:51.095Z,15.20
2023-03-04T12:54:32.339Z,17.13
2023-03-04T12:56:09.912Z,17.77
2023-03-04T12:57:43.982Z,18.73
2023-03-04T12:59:19.436Z,16.30
2023-03-04T13:00:59.452Z,16.58
2023-03-04T13:02:46.321Z,17.40
2023-03-04T13:04:27.561Z,15.80
2023-03-04T13:06:15.726Z,16.63
2023-03-04T13:07:58.701Z,14.77
2023-03-04T13:09:34.837Z,13.63
2023-03-04T13:11:42.403Z,13.13
2023-03-04T13:13:40.533Z,14.90
2023-03-04T13:15:20.006Z,14.43
2023-03-04T13:16:54.123Z,17.88
2023-03-04T13:18:34.898Z,17.25
2023-03-04T13:20:21.792Z,15.18
2023-03-04T13:21:54.615Z,11.13
2023-03-04T13:23:31.874Z,15.50
2023-03-04T13:25:29.855Z,12.98
2023-03-04T13:27:04.547Z,14.40
2023-03-04T13:28:38.046Z,13.48
2023-03-04T13:30:41.975Z,12.63
2023-03-04T13:32:34.772Z,16.10
2023-03-04T13:34:48.804Z,15.55
2023-03-04T13:36:52.642Z,16.00
2023-03-04T13:38:34.755Z,13.05
2023-03-04T13:40:35.193Z,12.85
2023-03-04T13:42:40.826Z,12.68
2023-03-04T13:44:33.502Z,13.57
2023-03-04T13:46:31.050Z,16.33
2023-03-04T13:48:09.297Z,12.93
2023-03-04T13:49:42.043Z,15.60
2023-03-04T13:51:28.944Z,13.63
2023-03-04T13:53:23.954Z,18.58
2023-03-04T13:55:30.192Z,16.10
2023-03-04T13:57:18.964Z,14.95
2023-03-04T13:58:54.051Z,17.55
2023-03-04T14:00:27.990Z,13.35
2023-03-04T14:02:11.688Z,12.60
2023-03-04T14:03:45.014Z,11.52
2023-03-04T14:05:17.752Z,13.55
2023-03-04T14:06:52.427Z,15.13
2023-03-04T14:08:26.932Z,12.82
2023-03-04T14:10:02.409Z,16.25
2023-03-04T14:11:41.666Z,11.88
2023-03-04T14:13:15.749Z,14.57
2023-03-04T14:14:51.733Z,12.32
2023-03-04T14:16:28.116Z,12.93
2023-03-04T14:18:02.612Z,14.40
2023-03-04T14:19:44.243Z,13.88
2023-03-04T14:21:17.617Z,13.60
2023-03-04T14:22:50.344Z,13.93
2023-03-04T14:24:24.208Z,12.02
2023-03-04T14:26:12.207Z,16.98
2023-03-04T14:27:45.129Z,17.98
2023-03-04T14:29:29.232Z,17.38
2023-03-04T14:31:02.315Z,15.90
2023-03-04T14:32:35.335Z,12.90
2023-03-04T14:34:14.823Z,15.10
2023-03-04T14:35:49.343Z,14.95
2023-03-04T14:37:24.452Z,15.27
2023-03-04T14:38:59.450Z,14.98
2023-03-04T14:40:36.535Z,15.20
2023-03-04T14:42:13.136Z,12.27
2023-03-04T14:43:53.212Z,14.70
2023-03-04T14:45:27.456Z,14.60
2023-03-04T14:47:08.478Z,15.35
2023-03-04T14:48:46.005Z,19.63
2023-03-04T14:50:20.922Z,12.38
2023-03-04T14:51:54.681Z,14.48
2023-03-04T14:53:29.204Z,17.80
2023-03-04T14:55:10.801Z,16.95
2023-03-04T14:56:45.714Z,16.98
2023-03-04T14:58:22.505Z,16.70
2023-03-04T14:59:55.706Z,16.25
2023-03-04T15:01:35.589Z,15.23
2023-03-04T15:03:21.878Z,16.38
2023-03-04T15:04:54.784Z,16.08
2023-03-04T15:06:29.667Z,16.90
2023-03-04T15:08:05.075Z,17.77
2023-03-04T15:09:38.002Z,16.80
2023-03-04T15:11:21.958Z,17.23
2023-03-04T15:12:56.288Z,18.90
2023-03-04T15:14:54.648Z,17.35
2023-03-04T15:16:30.461Z,19.23
2023-03-04T15:18:15.155Z,16.42
2023-03-04T15:19:59.137Z,21.30
2023-03-04T15:21:35.283Z,16.58
2023-03-04T15:23:08.368Z,21.55
2023-03-04T15:24:41.115Z,17.30
2023-03-04T15:26:14.624Z,18.48
2023-03-04T15:27:47.712Z,15.20
2023-03-04T15:29:21.479Z,16.95
2023-03-04T15:30:54.507Z,21.60
2023-03-04T15:32:27.798Z,19.75
2023-03-04T15:34:01.899Z,17.58
2023-03-04T15:35:34.748Z,17.40
2023-03-04T15:37:07.584Z,18.73
2023-03-04T15:38:42.286Z,20.77
2023-03-04T15:40:21.678Z,21.90
2023-03-04T15:41:55.558Z,21.33
2023-03-04T15:43:28.309Z,19.35
2023-03-04T15:45:01.015Z,19.20
2023-03-04T15:46:33.799Z,19.00
2023-03-04T15:48:08.888Z,18.38
2023-03-04T15:49:43.677Z,17.70
2023-03-04T15:51:18.227Z,17.85
2023-03-04T15:52:51.626Z,17.10
2023-03-04T15:54:29.511Z,18.40
2023-03-04T15:56:03.483Z,18.45
2023-03-04T15:57:36.273Z,17.75
2023-03-04T15:59:13.191Z,17.90
2023-03-04T16:00:45.957Z,16.42
2023-03-04T16:02:21.922Z,14.50
2023-03-04T16:03:54.634Z,13.98
2023-03-04T16:05:28.698Z,11.88
2023-03-04T16:07:01.406Z,15.55
2023-03-04T16:08:34.131Z,17.27
2023-03-04T16:10:12.956Z,19.83
2023-03-04T16:11:47.519Z,19.27
2023-03-04T16:13:21.947Z,15.73
2023-03-04T16:14:54.880Z,17.50
2023-03-04T16:16:27.671Z,14.57
2023-03-04T16:18:00.487Z,16.48
2023-03-04T16:19:33.239Z,14.25
2023-03-04T16:21:07.916Z,17.15
2023-03-04T16:22:42.252Z,15.85
2023-03-04T16:24:18.743Z,15.50
2023-03-04T16:25:54.592Z,19.95
2023-03-04T16:27:27.386Z,16.70
2023-03-04T16:29:00.281Z,16.83
2023-03-04T16:30:33.304Z,13.48
2023-03-04T16:32:06.347Z,15.20
2023-03-04T16:33:39.061Z,16.55
2023-03-04T16:35:13.039Z,15.55
2023-03-04T16:36:47.148Z,14.23
2023-03-04T16:38:25.770Z,16.88
2023-03-04T16:39:59.811Z,13.73
2023-03-04T16:41:32.515Z,15.88
2023-03-04T16:43:05.230Z,13.13
2023-03-04T16:44:37.954Z,13.18
2023-03-04T16:46:13.174Z,15.05
2023-03-04T16:47:46.212Z,14.18
2023-03-04T16:49:18.917Z,13.30
2023-03-04T16:50:51.828Z,14.38
2023-03-04T16:52:29.379Z,12.85
2023-03-04T16:54:02.619Z,11.10
2023-03-04T16:55:38.180Z,13.00
2023-03-04T16:57:12.824Z,15.38
2023-03-04T16:58:46.576Z,15.30
2023-03-04T17:00:21.732Z,14.50
2023-03-04T17:01:55.226Z,13.10
2023-03-04T17:03:28.062Z,11.93
2023-03-04T17:05:00.854Z,12.45
2023-03-04T17:06:34.337Z,11.38
2023-03-04T17:08:08.448Z,11.48
2023-03-04T17:09:41.248Z,11.82
2023-03-04T17:11:16.583Z,12.77
2023-03-04T17:12:49.902Z,13.25
2023-03-04T17:14:22.833Z,12.20
2023-03-04T17:15:55.678Z,13.48
2023-03-04T17:17:28.417Z,12.25
2023-03-04T17:19:01.327Z,13.55
2023-03-04T17:20:34.031Z,12.93
2023-03-04T17:22:06.715Z,18.08
2023-03-04T17:23:40.797Z,12.55
2023-03-04T17:25:14.771Z,16.45
2023-03-04T17:26:47.631Z,13.85
2023-03-04T17:28:20.311Z,13.65
2023-03-04T17:29:54.929Z,18.67
2023-03-04T17:31:27.775Z,13.90
2023-03-04T17:33:00.573Z,17.10
2023-03-04T17:34:33.575Z,14.65
2023-03-04T17:36:06.950Z,13.68
2023-03-04T17:37:39.666Z,13.35
2023-03-04T17:39:13.962Z,15.90
2023-03-04T17:40:46.734Z,14.50
2023-03-04T17:42:19.636Z,16.50
2023-03-04T17:43:54.435Z,13.00
2023-03-04T17:45:27.249Z,17.05
2023-03-04T17:46:59.934Z,26.90
2023-03-04T17:48:32.641Z,27.30
2023-03-04T17:50:06.574Z,20.25
2023-03-04T17:51:40.547Z,22.65
2023-03-04T17:53:13.240Z,55.53
2023-03-04T17:54:47.738Z,49.33
2023-03-04T17:56:20.447Z,18.83
2023-03-04T17:57:55.421Z,20.00
2023-03-04T17:59:28.142Z,14.50
2023-03-04T18:01:05.904Z,14.85
2023-03-04T18:02:38.633Z,12.70
2023-03-04T18:04:11.481Z,17.50
2023-03-04T18:05:44.356Z,17.95
2023-03-04T18:07:17.067Z,16.17
2023-03-04T18:08:50.078Z,12.60
2023-03-04T18:10:24.087Z,16.48
2023-03-04T18:11:56.836Z,15.43
2023-03-04T18:13:29.555Z,16.35
2023-03-04T18:15:02.240Z,13.85
2023-03-04T18:16:35.319Z,15.52
2023-03-04T18:18:08.254Z,15.15
2023-03-04T18:19:41.083Z,14.88
2023-03-04T18:21:14.461Z,17.17
2023-03-04T18:22:47.223Z,14.77
2023-03-04T18:24:19.942Z,14.00
2023-03-04T18:25:54.100Z,15.15
2023-03-04T18:27:27.793Z,13.10
2023-03-04T18:29:00.499Z,14.90
2023-03-04T18:30:33.409Z,13.15
2023-03-04T18:32:06.923Z,15.40
2023-03-04T18:33:40.581Z,13.82
2023-03-04T18:35:13.901Z,13.63
2023-03-04T18:36:47.552Z,14.68
2023-03-04T18:38:20.702Z,14.07
2023-03-04T18:39:53.372Z,14.45
2023-03-04T18:41:28.244Z,12.90
2023-03-04T18:43:01.054Z,14.30
2023-03-04T18:44:33.775Z,13.02
2023-03-04T18:46:08.420Z,12.45
2023-03-04T18:47:42.802Z,14.30
2023-03-04T18:49:16.309Z,15.90
2023-03-04T18:50:50.037Z,15.80
2023-03-04T18:52:23.772Z,15.70
2023-03-04T18:53:56.456Z,16.98
2023-03-04T18:55:29.209Z,17.17
2023-03-04T18:57:06.945Z,15.07
2023-03-04T18:58:41.161Z,15.93
2023-03-04T19:00:17.796Z,16.13
2023-03-04T19:01:51.816Z,15.93
2023-03-04T19:03:24.891Z,14.82
2023-03-04T19:05:02.608Z,14.70
2023-03-04T19:06:35.583Z,15.80
2023-03-04T19:08:08.308Z,16.27
2023-03-04T19:09:40.991Z,14.25
2023-03-04T19:11:14.583Z,13.35
2023-03-04T19:12:48.658Z,18.05
2023-03-04T19:14:21.401Z,21.38
2023-03-04T19:15:55.241Z,18.13
2023-03-04T19:17:31.775Z,16.27
2023-03-04T19:19:04.559Z,15.95
2023-03-04T19:20:37.884Z,16.95
2023-03-04T19:22:10.602Z,17.42
2023-03-04T19:23:43.362Z,15.77
2023-03-04T19:25:16.116Z,19.92
2023-03-04T19:26:48.811Z,14.27
2023-03-04T19:28:24.136Z,15.25
2023-03-04T19:29:56.813Z,20.83
2023-03-04T19:31:29.546Z,17.27
2023-03-04T19:33:02.982Z,14.00
2023-03-04T19:34:35.685Z,14.60
2023-03-04T19:36:10.170Z,16.42
2023-03-04T19:37:42.899Z,14.00
2023-03-04T19:39:18.314Z,16.77
2023-03-04T19:40:51.039Z,26.10
2023-03-04T19:42:24.388Z,20.33
2023-03-04T19:43:58.658Z,16.20
2023-03-04T19:45:31.467Z,15.02
2023-03-04T19:47:04.600Z,14.52
2023-03-04T19:48:37.983Z,15.20
2023-03-04T19:50:13.248Z,13.27
2023-03-04T19:51:46.139Z,15.18
2023-03-04T19:53:19.288Z,15.13
2023-03-04T19:54:52.054Z,18.55
2023-03-04T19:56:25.116Z,15.60
2023-03-04T19:57:57.809Z,15.02
2023-03-04T19:59:31.839Z,13.25
2023-03-04T20:01:04.926Z,13.82
2023-03-04T20:02:37.870Z,14.43
2023-03-04T20:04:12.722Z,14.20
2023-03-04T20:05:46.342Z,18.65
2023-03-04T20:07:19.133Z,13.70
2023-03-04T20:08:52.212Z,17.70
2023-03-04T20:10:24.930Z,16.17
2023-03-04T20:11:59.446Z,22.63
2023-03-04T20:13:32.302Z,21.67
2023-03-04T20:15:08.533Z,26.80
2023-03-04T20:16:41.594Z,41.13
2023-03-04T20:18:14.293Z,34.50
2023-03-04T20:19:47.425Z,45.15
2023-03-04T20:21:20.401Z,26.40
2023-03-04T20:22:53.119Z,21.77
2023-03-04T20:24:26.193Z,19.70
2023-03-04T20:25:58.929Z,26.55
2023-03-04T20:27:31.644Z,27.35
2023-03-04T20:29:04.341Z,22.52
2023-03-04T20:30:39.097Z,27.52